sensor_id;sensor_type;location;lat;lon;timestamp;pressure;altitude;pressure_sealevel;temperature;humidity
55373;BME280;41249;47.838;16.490;2023-04-26T00:00:47;98973.84;;;2.79;68.23
55373;BME280;41249;47.838;16.490;2023-04-26T00:03:14;98971.66;;;2.85;67.21
55373;BME280;41249;47.838;16.490;2023-04-26T00:05:40;98958.66;;;2.82;66.58
55373;BME280;41249;47.838;16.490;2023-04-26T00:08:08;98973.91;;;2.83;66.80
55373;BME280;41249;47.838;16.490;2023-04-26T00:10:34;98975.16;;;2.86;66.79
55373;BME280;41249;47.838;16.490;2023-04-26T00:13:01;98975.97;;;2.86;66.79
55373;BME280;41249;47.838;16.490;2023-04-26T00:15:27;98986.38;;;2.80;66.54
55373;BME280;41249;47.838;16.490;2023-04-26T00:17:53;98984.81;;;2.79;66.67
55373;BME280;41249;47.838;16.490;2023-04-26T00:20:20;98987.56;;;2.79;66.14
55373;BME280;41249;47.838;16.490;2023-04-26T00:22:46;98993.31;;;2.74;66.44
55373;BME280;41249;47.838;16.490;2023-04-26T00:25:13;98999.38;;;2.68;66.37
55373;BME280;41249;47.838;16.490;2023-04-26T00:27:39;99001.59;;;2.62;66.17
55373;BME280;41249;47.838;16.490;2023-04-26T00:30:06;99007.16;;;2.66;66.54
55373;BME280;41249;47.838;16.490;2023-04-26T00:32:33;99008.91;;;2.58;66.17
55373;BME280;41249;47.838;16.490;2023-04-26T00:35:02;99011.66;;;2.58;66.60
55373;BME280;41249;47.838;16.490;2023-04-26T00:37:28;99021.56;;;2.47;66.34
55373;BME280;41249;47.838;16.490;2023-04-26T00:39:55;99015.91;;;2.40;66.62
55373;BME280;41249;47.838;16.490;2023-04-26T00:42:22;99017.91;;;2.28;66.88
55373;BME280;41249;47.838;16.490;2023-04-26T00:44:49;99027.13;;;2.23;67.49
55373;BME280;41249;47.838;16.490;2023-04-26T00:47:16;99031.72;;;2.19;68.45
55373;BME280;41249;47.838;16.490;2023-04-26T00:49:42;99026.75;;;2.09;68.07
55373;BME280;41249;47.838;16.490;2023-04-26T00:52:09;99033.72;;;2.06;69.23
55373;BME280;41249;47.838;16.490;2023-04-26T00:54:36;99025.06;;;2.04;69.00
55373;BME280;41249;47.838;16.490;2023-04-26T00:57:03;99037.75;;;1.97;68.76
55373;BME280;41249;47.838;16.490;2023-04-26T00:59:30;99033.19;;;1.89;69.17
55373;BME280;41249;47.838;16.490;2023-04-26T01:01:56;99025.34;;;1.87;69.03
55373;BME280;41249;47.838;16.490;2023-04-26T01:04:23;99025.13;;;1.80;70.15
55373;BME280;41249;47.838;16.490;2023-04-26T01:06:52;99032.09;;;1.66;70.06
55373;BME280;41249;47.838;16.490;2023-04-26T01:09:19;99032.25;;;1.57;71.03
55373;BME280;41249;47.838;16.490;2023-04-26T01:11:45;99031.22;;;1.62;71.51
55373;BME280;41249;47.838;16.490;2023-04-26T01:14:13;99033.94;;;1.62;72.24
55373;BME280;41249;47.838;16.490;2023-04-26T01:16:39;99037.25;;;1.67;72.13
55373;BME280;41249;47.838;16.490;2023-04-26T01:19:09;99039.06;;;1.63;72.11
55373;BME280;41249;47.838;16.490;2023-04-26T01:21:38;99041.03;;;1.63;71.34
55373;BME280;41249;47.838;16.490;2023-04-26T01:24:05;99033.06;;;1.58;72.73
55373;BME280;41249;47.838;16.490;2023-04-26T01:26:32;99036.69;;;1.49;72.98
55373;BME280;41249;47.838;16.490;2023-04-26T01:28:58;99045.81;;;1.41;72.85
55373;BME280;41249;47.838;16.490;2023-04-26T01:31:24;99032.50;;;1.40;72.58
55373;BME280;41249;47.838;16.490;2023-04-26T01:33:51;99041.50;;;1.40;72.17
55373;BME280;41249;47.838;16.490;2023-04-26T01:36:18;99042.63;;;1.39;72.28
55373;BME280;41249;47.838;16.490;2023-04-26T01:38:44;99052.69;;;1.35;72.62
55373;BME280;41249;47.838;16.490;2023-04-26T01:41:11;99039.25;;;1.30;72.75
55373;BME280;41249;47.838;16.490;2023-04-26T01:43:37;99043.09;;;1.29;72.35
55373;BME280;41249;47.838;16.490;2023-04-26T01:46:04;99043.09;;;1.29;71.99
55373;BME280;41249;47.838;16.490;2023-04-26T01:48:30;99044.81;;;1.34;71.14
55373;BME280;41249;47.838;16.490;2023-04-26T01:50:57;99046.28;;;1.31;72.33
55373;BME280;41249;47.838;16.490;2023-04-26T01:53:23;99052.19;;;1.33;71.30
55373;BME280;41249;47.838;16.490;2023-04-26T01:55:49;99038.53;;;1.33;71.08
55373;BME280;41249;47.838;16.490;2023-04-26T01:58:16;99050.94;;;1.31;71.28
55373;BME280;41249;47.838;16.490;2023-04-26T02:00:42;99039.78;;;1.24;71.44
55373;BME280;41249;47.838;16.490;2023-04-26T02:03:09;99043.78;;;1.26;70.75
55373;BME280;41249;47.838;16.490;2023-04-26T02:05:36;99047.63;;;1.13;71.03
55373;BME280;41249;47.838;16.490;2023-04-26T02:08:02;99039.91;;;1.03;71.11
55373;BME280;41249;47.838;16.490;2023-04-26T02:10:29;99040.47;;;0.97;70.78
55373;BME280;41249;47.838;16.490;2023-04-26T02:12:56;99040.47;;;0.97;70.12
55373;BME280;41249;47.838;16.490;2023-04-26T02:15:22;99055.50;;;1.03;68.82
55373;BME280;41249;47.838;16.490;2023-04-26T02:17:49;99054.13;;;1.09;68.83
55373;BME280;41249;47.838;16.490;2023-04-26T02:20:15;99052.13;;;1.18;68.14
55373;BME280;41249;47.838;16.490;2023-04-26T02:22:42;99046.97;;;1.16;67.03
55373;BME280;41249;47.838;16.490;2023-04-26T02:25:08;99046.50;;;1.14;66.70
55373;BME280;41249;47.838;16.490;2023-04-26T02:27:35;99042.06;;;1.22;66.83
55373;BME280;41249;47.838;16.490;2023-04-26T02:30:02;99047.53;;;1.22;65.67
55373;BME280;41249;47.838;16.490;2023-04-26T02:32:29;99039.34;;;1.10;66.37
55373;BME280;41249;47.838;16.490;2023-04-26T02:34:55;99046.97;;;1.04;66.75
55373;BME280;41249;47.838;16.490;2023-04-26T02:37:22;99030.47;;;1.01;67.22
55373;BME280;41249;47.838;16.490;2023-04-26T02:39:49;99032.03;;;1.02;66.89
55373;BME280;41249;47.838;16.490;2023-04-26T02:42:16;99029.44;;;0.93;66.79
55373;BME280;41249;47.838;16.490;2023-04-26T02:44:43;99043.56;;;0.95;67.17
55373;BME280;41249;47.838;16.490;2023-04-26T02:47:09;99040.38;;;0.93;67.42
55373;BME280;41249;47.838;16.490;2023-04-26T02:49:36;99043.41;;;0.92;67.26
55373;BME280;41249;47.838;16.490;2023-04-26T02:52:02;99046.81;;;0.89;67.89
55373;BME280;41249;47.838;16.490;2023-04-26T02:54:29;99051.03;;;0.86;67.56
55373;BME280;41249;47.838;16.490;2023-04-26T02:56:55;99055.72;;;0.86;67.74
55373;BME280;41249;47.838;16.490;2023-04-26T02:59:23;99051.97;;;0.90;67.36
55373;BME280;41249;47.838;16.490;2023-04-26T03:01:49;99064.38;;;0.88;67.29
55373;BME280;41249;47.838;16.490;2023-04-26T03:04:16;99072.41;;;0.84;67.48
55373;BME280;41249;47.838;16.490;2023-04-26T03:06:43;99073.78;;;0.78;67.36
55373;BME280;41249;47.838;16.490;2023-04-26T03:09:09;99084.00;;;0.69;67.50
55373;BME280;41249;47.838;16.490;2023-04-26T03:11:36;99082.47;;;0.59;68.39
55373;BME280;41249;47.838;16.490;2023-04-26T03:14:02;99090.09;;;0.54;68.34
55373;BME280;41249;47.838;16.490;2023-04-26T03:16:29;99102.16;;;0.53;67.77
55373;BME280;41249;47.838;16.490;2023-04-26T03:18:55;99102.38;;;0.48;68.24
55373;BME280;41249;47.838;16.490;2023-04-26T03:21:22;99099.50;;;0.44;68.64
55373;BME280;41249;47.838;16.490;2023-04-26T03:23:48;99103.91;;;0.37;68.93
55373;BME280;41249;47.838;16.490;2023-04-26T03:26:15;99095.47;;;0.30;68.60
55373;BME280;41249;47.838;16.490;2023-04-26T03:28:41;99109.09;;;0.30;68.74
55373;BME280;41249;47.838;16.490;2023-04-26T03:31:08;99106.38;;;0.30;68.61
55373;BME280;41249;47.838;16.490;2023-04-26T03:33:34;99102.25;;;0.23;68.60
55373;BME280;41249;47.838;16.490;2023-04-26T03:36:00;99104.97;;;0.23;68.65
55373;BME280;41249;47.838;16.490;2023-04-26T03:38:27;99111.38;;;0.28;68.37
55373;BME280;41249;47.838;16.490;2023-04-26T03:40:53;99108.84;;;0.22;68.30
55373;BME280;41249;47.838;16.490;2023-04-26T03:43:20;99110.56;;;0.27;68.44
55373;BME280;41249;47.838;16.490;2023-04-26T03:45:46;99112.50;;;0.27;68.13
55373;BME280;41249;47.838;16.490;2023-04-26T03:48:14;99115.22;;;0.27;67.39
55373;BME280;41249;47.838;16.490;2023-04-26T03:50:42;99107.50;;;0.29;67.70
55373;BME280;41249;47.838;16.490;2023-04-26T03:53:10;99108.41;;;0.20;67.52
55373;BME280;41249;47.838;16.490;2023-04-26T03:55:37;99107.03;;;0.27;67.39
55373;BME280;41249;47.838;16.490;2023-04-26T03:58:03;99107.50;;;0.29;67.12
55373;BME280;41249;47.838;16.490;2023-04-26T04:00:56;99128.81;;;0.35;66.66
55373;BME280;41249;47.838;16.490;2023-04-26T04:03:23;99129.63;;;0.36;66.67
55373;BME280;41249;47.838;16.490;2023-04-26T04:16:29;99141.47;;;0.40;66.35
55373;BME280;41249;47.838;16.490;2023-04-26T04:18:56;99144.66;;;0.42;66.46
55373;BME280;41249;47.838;16.490;2023-04-26T04:21:23;99145.91;;;0.44;66.60
55373;BME280;41249;47.838;16.490;2023-04-26T04:23:49;99149.41;;;0.53;66.62
55373;BME280;41249;47.838;16.490;2023-04-26T04:26:16;99153.19;;;0.61;66.08
55373;BME280;41249;47.838;16.490;2023-04-26T04:28:44;99156.94;;;0.68;65.98
55373;BME280;41249;47.838;16.490;2023-04-26T04:31:12;99156.72;;;0.73;65.95
55373;BME280;41249;47.838;16.490;2023-04-26T04:33:39;99167.00;;;0.76;65.20
55373;BME280;41249;47.838;16.490;2023-04-26T04:36:06;99156.22;;;0.80;64.64
55373;BME280;41249;47.838;16.490;2023-04-26T04:38:33;99172.22;;;0.90;64.14
55373;BME280;41249;47.838;16.490;2023-04-26T04:41:01;99169.50;;;1.02;64.48
55373;BME280;41249;47.838;16.490;2023-04-26T04:43:27;99167.22;;;1.04;63.91
55373;BME280;41249;47.838;16.490;2023-04-26T04:45:54;99170.22;;;1.11;64.05
55373;BME280;41249;47.838;16.490;2023-04-26T04:48:21;99167.25;;;1.16;63.82
55373;BME280;41249;47.838;16.490;2023-04-26T04:50:48;99175.25;;;1.21;64.14
55373;BME280;41249;47.838;16.490;2023-04-26T04:53:14;99173.69;;;1.32;63.78
55373;BME280;41249;47.838;16.490;2023-04-26T04:55:41;99175.75;;;1.35;64.03
55373;BME280;41249;47.838;16.490;2023-04-26T04:58:07;99174.81;;;1.43;63.50
55373;BME280;41249;47.838;16.490;2023-04-26T05:00:34;99181.47;;;1.55;63.01
55373;BME280;41249;47.838;16.490;2023-04-26T05:03:03;99186.72;;;1.72;63.45
55373;BME280;41249;47.838;16.490;2023-04-26T05:05:30;99185.00;;;1.79;63.39
55373;BME280;41249;47.838;16.490;2023-04-26T05:07:56;99183.50;;;1.94;62.72
55373;BME280;41249;47.838;16.490;2023-04-26T05:10:23;99183.63;;;2.09;62.30
55373;BME280;41249;47.838;16.490;2023-04-26T05:12:49;99187.72;;;2.28;62.29
55373;BME280;41249;47.838;16.490;2023-04-26T05:15:16;99198.19;;;2.38;61.33
55373;BME280;41249;47.838;16.490;2023-04-26T05:17:42;99205.00;;;2.44;58.61
55373;BME280;41249;47.838;16.490;2023-04-26T05:20:09;99191.44;;;2.47;58.68
55373;BME280;41249;47.838;16.490;2023-04-26T05:22:36;99192.28;;;2.63;59.15
55373;BME280;41249;47.838;16.490;2023-04-26T05:25:04;99193.03;;;2.76;59.60
55373;BME280;41249;47.838;16.490;2023-04-26T05:27:30;99196.22;;;2.78;56.57
55373;BME280;41249;47.838;16.490;2023-04-26T05:29:59;99195.38;;;2.90;57.35
55373;BME280;41249;47.838;16.490;2023-04-26T05:32:26;99197.00;;;3.06;56.22
55373;BME280;41249;47.838;16.490;2023-04-26T05:34:52;99199.88;;;3.10;54.46
55373;BME280;41249;47.838;16.490;2023-04-26T05:37:19;99205.09;;;3.15;55.11
55373;BME280;41249;47.838;16.490;2023-04-26T05:39:45;99203.91;;;3.28;54.72
55373;BME280;41249;47.838;16.490;2023-04-26T05:42:12;99217.56;;;3.40;53.48
55373;BME280;41249;47.838;16.490;2023-04-26T05:44:39;99220.31;;;3.56;55.82
55373;BME280;41249;47.838;16.490;2023-04-26T05:47:06;99224.13;;;3.51;54.07
55373;BME280;41249;47.838;16.490;2023-04-26T05:49:33;99221.19;;;3.44;54.28
55373;BME280;41249;47.838;16.490;2023-04-26T05:51:59;99219.31;;;3.48;55.03
55373;BME280;41249;47.838;16.490;2023-04-26T05:54:26;99218.56;;;3.94;56.00
55373;BME280;41249;47.838;16.490;2023-04-26T05:56:52;99224.13;;;3.98;53.67
55373;BME280;41249;47.838;16.490;2023-04-26T05:59:19;99230.50;;;3.86;52.80
55373;BME280;41249;47.838;16.490;2023-04-26T06:01:46;99232.81;;;3.84;52.86
55373;BME280;41249;47.838;16.490;2023-04-26T06:04:12;99233.06;;;3.95;53.67
55373;BME280;41249;47.838;16.490;2023-04-26T06:06:39;99237.50;;;3.99;52.42
55373;BME280;41249;47.838;16.490;2023-04-26T06:09:06;99245.38;;;3.85;52.72
55373;BME280;41249;47.838;16.490;2023-04-26T06:11:33;99246.19;;;3.86;52.59
55373;BME280;41249;47.838;16.490;2023-04-26T06:14:00;99245.56;;;3.92;51.46
55373;BME280;41249;47.838;16.490;2023-04-26T06:16:26;99242.63;;;4.17;52.93
55373;BME280;41249;47.838;16.490;2023-04-26T06:18:53;99248.34;;;4.43;51.61
55373;BME280;41249;47.838;16.490;2023-04-26T06:21:19;99250.22;;;4.39;51.55
55373;BME280;41249;47.838;16.490;2023-04-26T06:23:46;99255.13;;;4.30;50.41
55373;BME280;41249;47.838;16.490;2023-04-26T06:26:12;99257.25;;;4.21;49.48
55373;BME280;41249;47.838;16.490;2023-04-26T06:28:39;99251.19;;;4.31;50.15
55373;BME280;41249;47.838;16.490;2023-04-26T06:31:07;99257.63;;;4.54;50.63
55373;BME280;41249;47.838;16.490;2023-04-26T06:33:34;99259.56;;;4.88;50.65
55373;BME280;41249;47.838;16.490;2023-04-26T06:36:00;99260.09;;;5.13;48.88
55373;BME280;41249;47.838;16.490;2023-04-26T06:38:27;99268.22;;;5.25;47.58
55373;BME280;41249;47.838;16.490;2023-04-26T06:40:53;99267.31;;;5.40;47.74
55373;BME280;41249;47.838;16.490;2023-04-26T06:43:20;99257.53;;;5.43;48.16
55373;BME280;41249;47.838;16.490;2023-04-26T06:45:46;99264.22;;;5.22;47.51
55373;BME280;41249;47.838;16.490;2023-04-26T06:48:13;99262.59;;;5.60;47.04
55373;BME280;41249;47.838;16.490;2023-04-26T06:50:39;99261.22;;;5.69;45.86
55373;BME280;41249;47.838;16.490;2023-04-26T06:53:06;99252.31;;;6.02;47.79
55373;BME280;41249;47.838;16.490;2023-04-26T06:55:33;99264.44;;;6.20;44.66
55373;BME280;41249;47.838;16.490;2023-04-26T06:58:00;99261.50;;;5.87;43.81
55373;BME280;41249;47.838;16.490;2023-04-26T07:00:26;99270.88;;;5.82;43.50
55373;BME280;41249;47.838;16.490;2023-04-26T07:02:53;99269.81;;;5.26;42.88
55373;BME280;41249;47.838;16.490;2023-04-26T07:05:20;99263.63;;;5.32;42.31
55373;BME280;41249;47.838;16.490;2023-04-26T07:07:46;99279.69;;;5.69;43.14
55373;BME280;41249;47.838;16.490;2023-04-26T07:10:13;99269.09;;;6.16;43.66
55373;BME280;41249;47.838;16.490;2023-04-26T07:12:40;99274.31;;;6.47;41.19
55373;BME280;41249;47.838;16.490;2023-04-26T07:15:06;99266.38;;;6.20;40.97
55373;BME280;41249;47.838;16.490;2023-04-26T07:17:33;99269.06;;;6.91;43.42
55373;BME280;41249;47.838;16.490;2023-04-26T07:20:00;99280.28;;;6.76;40.04
55373;BME280;41249;47.838;16.490;2023-04-26T07:22:26;99277.72;;;6.15;42.45
55373;BME280;41249;47.838;16.490;2023-04-26T07:24:53;99272.50;;;6.58;40.15
55373;BME280;41249;47.838;16.490;2023-04-26T07:27:19;99275.69;;;6.60;41.17
55373;BME280;41249;47.838;16.490;2023-04-26T07:29:46;99277.53;;;6.53;39.43
55373;BME280;41249;47.838;16.490;2023-04-26T07:32:12;99290.19;;;6.80;38.91
55373;BME280;41249;47.838;16.490;2023-04-26T07:34:39;99292.66;;;6.62;38.86
55373;BME280;41249;47.838;16.490;2023-04-26T07:37:06;99290.41;;;6.19;40.24
55373;BME280;41249;47.838;16.490;2023-04-26T07:39:33;99294.66;;;6.39;40.76
55373;BME280;41249;47.838;16.490;2023-04-26T07:41:59;99287.50;;;6.35;39.88
55373;BME280;41249;47.838;16.490;2023-04-26T07:44:26;99298.13;;;6.59;40.90
55373;BME280;41249;47.838;16.490;2023-04-26T07:46:52;99292.34;;;6.41;40.41
55373;BME280;41249;47.838;16.490;2023-04-26T07:49:18;99284.06;;;6.68;41.18
55373;BME280;41249;47.838;16.490;2023-04-26T07:51:45;99280.78;;;6.58;39.11
55373;BME280;41249;47.838;16.490;2023-04-26T07:54:12;99297.31;;;6.32;40.33
55373;BME280;41249;47.838;16.490;2023-04-26T07:56:38;99291.72;;;6.51;39.39
55373;BME280;41249;47.838;16.490;2023-04-26T07:59:05;99307.63;;;6.61;38.38
55373;BME280;41249;47.838;16.490;2023-04-26T08:01:31;99302.44;;;6.56;38.03
55373;BME280;41249;47.838;16.490;2023-04-26T08:03:58;99301.34;;;6.64;36.76
55373;BME280;41249;47.838;16.490;2023-04-26T08:06:26;99301.66;;;6.59;37.02
55373;BME280;41249;47.838;16.490;2023-04-26T08:08:54;99297.44;;;6.65;37.37
55373;BME280;41249;47.838;16.490;2023-04-26T08:11:21;99294.66;;;6.88;36.51
55373;BME280;41249;47.838;16.490;2023-04-26T08:13:47;99281.47;;;6.52;38.21
55373;BME280;41249;47.838;16.490;2023-04-26T08:16:14;99290.94;;;6.28;36.57
55373;BME280;41249;47.838;16.490;2023-04-26T08:18:40;99283.00;;;6.23;37.63
55373;BME280;41249;47.838;16.490;2023-04-26T08:21:10;99272.06;;;6.30;38.77
55373;BME280;41249;47.838;16.490;2023-04-26T08:23:37;99281.19;;;6.83;36.91
55373;BME280;41249;47.838;16.490;2023-04-26T08:26:03;99283.44;;;6.78;36.97
55373;BME280;41249;47.838;16.490;2023-04-26T08:28:30;99288.88;;;6.71;36.75
55373;BME280;41249;47.838;16.490;2023-04-26T08:30:56;99283.63;;;6.92;35.75
55373;BME280;41249;47.838;16.490;2023-04-26T08:33:23;99292.38;;;6.94;36.20
55373;BME280;41249;47.838;16.490;2023-04-26T08:35:50;99287.75;;;7.05;36.52
55373;BME280;41249;47.838;16.490;2023-04-26T08:38:16;99295.31;;;7.08;34.59
55373;BME280;41249;47.838;16.490;2023-04-26T08:40:43;99296.47;;;7.07;35.98
55373;BME280;41249;47.838;16.490;2023-04-26T08:43:12;99293.94;;;6.95;36.70
55373;BME280;41249;47.838;16.490;2023-04-26T08:45:40;99296.59;;;7.14;35.38
55373;BME280;41249;47.838;16.490;2023-04-26T08:48:10;99304.31;;;7.05;35.81
55373;BME280;41249;47.838;16.490;2023-04-26T08:50:41;99308.69;;;7.36;35.23
55373;BME280;41249;47.838;16.490;2023-04-26T08:53:08;99302.16;;;7.51;34.66
55373;BME280;41249;47.838;16.490;2023-04-26T08:55:35;99313.22;;;7.54;34.87
55373;BME280;41249;47.838;16.490;2023-04-26T08:58:02;99331.03;;;7.27;34.04
55373;BME280;41249;47.838;16.490;2023-04-26T09:00:29;99306.25;;;7.01;36.28
55373;BME280;41249;47.838;16.490;2023-04-26T09:02:56;99310.63;;;7.35;34.95
55373;BME280;41249;47.838;16.490;2023-04-26T09:05:23;99307.94;;;7.09;34.90
55373;BME280;41249;47.838;16.490;2023-04-26T09:08:01;99303.50;;;7.01;36.35
55373;BME280;41249;47.838;16.490;2023-04-26T09:10:29;99319.47;;;6.88;35.97
55373;BME280;41249;47.838;16.490;2023-04-26T09:12:57;99305.59;;;6.81;36.60
55373;BME280;41249;47.838;16.490;2023-04-26T09:15:24;99306.44;;;6.85;37.36
55373;BME280;41249;47.838;16.490;2023-04-26T09:17:51;99304.09;;;6.64;35.72
55373;BME280;41249;47.838;16.490;2023-04-26T09:22:45;99311.09;;;6.32;38.22
55373;BME280;41249;47.838;16.490;2023-04-26T09:25:12;99309.72;;;6.45;37.54
55373;BME280;41249;47.838;16.490;2023-04-26T09:27:41;99305.94;;;6.53;37.32
55373;BME280;41249;47.838;16.490;2023-04-26T09:30:15;99306.34;;;6.55;38.11
55373;BME280;41249;47.838;16.490;2023-04-26T09:35:51;99319.59;;;6.69;38.45
55373;BME280;41249;47.838;16.490;2023-04-26T09:38:11;99313.03;;;6.32;39.07
55373;BME280;41249;47.838;16.490;2023-04-26T09:43:10;99314.91;;;6.24;39.75
55373;BME280;41249;47.838;16.490;2023-04-26T09:45:46;99308.13;;;6.44;38.37
55373;BME280;41249;47.838;16.490;2023-04-26T09:48:16;99319.13;;;6.67;38.67
55373;BME280;41249;47.838;16.490;2023-04-26T09:50:43;99315.47;;;6.11;38.09
55373;BME280;41249;47.838;16.490;2023-04-26T09:56:08;99316.16;;;6.53;38.40
55373;BME280;41249;47.838;16.490;2023-04-26T09:58:36;99320.69;;;6.91;39.63
55373;BME280;41249;47.838;16.490;2023-04-26T10:01:03;99312.38;;;6.64;37.39
55373;BME280;41249;47.838;16.490;2023-04-26T10:03:32;99301.88;;;6.70;37.85
55373;BME280;41249;47.838;16.490;2023-04-26T10:05:59;99307.88;;;6.76;37.20
55373;BME280;41249;47.838;16.490;2023-04-26T10:08:26;99327.69;;;6.85;39.58
55373;BME280;41249;47.838;16.490;2023-04-26T10:10:53;99319.59;;;6.69;39.19
55373;BME280;41249;47.838;16.490;2023-04-26T10:13:20;99294.59;;;6.85;38.47
55373;BME280;41249;47.838;16.490;2023-04-26T10:15:46;99288.56;;;7.05;39.13
55373;BME280;41249;47.838;16.490;2023-04-26T10:18:14;99293.25;;;7.31;36.68
55373;BME280;41249;47.838;16.490;2023-04-26T10:20:42;99281.94;;;7.43;38.43
55373;BME280;41249;47.838;16.490;2023-04-26T10:23:12;99287.69;;;7.64;38.06
55373;BME280;41249;47.838;16.490;2023-04-26T10:25:42;99279.47;;;7.71;37.77
55373;BME280;41249;47.838;16.490;2023-04-26T10:28:09;99290.97;;;7.73;37.18
55373;BME280;41249;47.838;16.490;2023-04-26T10:30:52;99275.94;;;7.74;39.15
55373;BME280;41249;47.838;16.490;2023-04-26T10:33:19;99280.66;;;7.70;37.94
55373;BME280;41249;47.838;16.490;2023-04-26T10:36:00;99299.31;;;7.44;36.95
55373;BME280;41249;47.838;16.490;2023-04-26T10:38:26;99285.72;;;7.65;37.92
55373;BME280;41249;47.838;16.490;2023-04-26T10:40:53;99272.44;;;7.77;36.72
55373;BME280;41249;47.838;16.490;2023-04-26T10:43:26;99284.72;;;8.24;38.95
55373;BME280;41249;47.838;16.490;2023-04-26T10:45:53;99285.31;;;8.47;39.09
55373;BME280;41249;47.838;16.490;2023-04-26T10:48:28;99276.34;;;8.61;37.27
55373;BME280;41249;47.838;16.490;2023-04-26T10:56:49;99274.13;;;7.52;37.63
55373;BME280;41249;47.838;16.490;2023-04-26T10:59:10;99267.81;;;7.52;37.82
55373;BME280;41249;47.838;16.490;2023-04-26T11:01:40;99280.59;;;7.30;39.09
55373;BME280;41249;47.838;16.490;2023-04-26T11:04:10;99275.81;;;6.94;39.50
55373;BME280;41249;47.838;16.490;2023-04-26T11:06:47;99273.47;;;6.70;40.96
55373;BME280;41249;47.838;16.490;2023-04-26T11:12:00;99271.34;;;6.59;40.35
55373;BME280;41249;47.838;16.490;2023-04-26T11:14:26;99261.38;;;6.78;39.59
55373;BME280;41249;47.838;16.490;2023-04-26T11:16:53;99258.78;;;6.88;40.35
55373;BME280;41249;47.838;16.490;2023-04-26T11:19:19;99269.28;;;6.79;39.73
55373;BME280;41249;47.838;16.490;2023-04-26T11:21:46;99264.31;;;6.92;40.51
55373;BME280;41249;47.838;16.490;2023-04-26T11:24:15;99265.78;;;7.12;39.94
55373;BME280;41249;47.838;16.490;2023-04-26T11:26:49;99275.75;;;7.20;40.02
55373;BME280;41249;47.838;16.490;2023-04-26T11:29:19;99278.81;;;7.11;39.53
55373;BME280;41249;47.838;16.490;2023-04-26T11:31:57;99265.34;;;6.80;38.56
55373;BME280;41249;47.838;16.490;2023-04-26T11:34:36;99270.63;;;7.22;40.19
55373;BME280;41249;47.838;16.490;2023-04-26T11:37:07;99268.06;;;7.76;38.62
55373;BME280;41249;47.838;16.490;2023-04-26T11:39:34;99270.22;;;7.53;38.31
55373;BME280;41249;47.838;16.490;2023-04-26T11:42:07;99266.78;;;7.30;39.33
55373;BME280;41249;47.838;16.490;2023-04-26T11:44:34;99259.56;;;7.18;38.05
55373;BME280;41249;47.838;16.490;2023-04-26T11:47:01;99271.03;;;6.91;37.97
55373;BME280;41249;47.838;16.490;2023-04-26T11:49:30;99279.25;;;6.87;38.88
55373;BME280;41249;47.838;16.490;2023-04-26T11:51:56;99278.03;;;6.85;40.29
55373;BME280;41249;47.838;16.490;2023-04-26T11:54:27;99275.66;;;6.83;40.58
55373;BME280;41249;47.838;16.490;2023-04-26T11:56:54;99276.34;;;6.77;41.49
55373;BME280;41249;47.838;16.490;2023-04-26T11:59:28;99281.59;;;6.59;42.98
55373;BME280;41249;47.838;16.490;2023-04-26T12:01:57;99292.97;;;6.31;43.80
55373;BME280;41249;47.838;16.490;2023-04-26T12:04:29;99295.41;;;6.36;44.57
55373;BME280;41249;47.838;16.490;2023-04-26T12:06:56;99296.47;;;6.54;44.85
55373;BME280;41249;47.838;16.490;2023-04-26T12:09:23;99285.41;;;6.51;43.94
55373;BME280;41249;47.838;16.490;2023-04-26T12:12:01;99293.47;;;6.63;44.94
55373;BME280;41249;47.838;16.490;2023-04-26T12:14:34;99298.50;;;6.31;43.84
55373;BME280;41249;47.838;16.490;2023-04-26T12:17:02;99300.16;;;6.39;44.20
55373;BME280;41249;47.838;16.490;2023-04-26T12:19:32;99285.84;;;6.30;42.83
55373;BME280;41249;47.838;16.490;2023-04-26T12:21:59;99270.63;;;6.40;43.95
55373;BME280;41249;47.838;16.490;2023-04-26T12:24:26;99260.34;;;6.89;43.68
55373;BME280;41249;47.838;16.490;2023-04-26T12:26:55;99252.22;;;7.00;43.39
55373;BME280;41249;47.838;16.490;2023-04-26T12:29:22;99264.00;;;7.63;42.90
55373;BME280;41249;47.838;16.490;2023-04-26T12:31:48;99257.97;;;7.54;43.43
55373;BME280;41249;47.838;16.490;2023-04-26T12:34:15;99264.75;;;7.60;41.60
55373;BME280;41249;47.838;16.490;2023-04-26T12:36:41;99254.06;;;7.96;41.67
55373;BME280;41249;47.838;16.490;2023-04-26T12:39:10;99265.97;;;8.03;41.22
55373;BME280;41249;47.838;16.490;2023-04-26T12:41:39;99272.47;;;8.21;40.34
55373;BME280;41249;47.838;16.490;2023-04-26T12:44:06;99271.88;;;8.49;39.98
55373;BME280;41249;47.838;16.490;2023-04-26T12:46:33;99264.91;;;8.66;41.17
55373;BME280;41249;47.838;16.490;2023-04-26T12:48:59;99266.59;;;8.84;40.46
55373;BME280;41249;47.838;16.490;2023-04-26T12:51:27;99263.97;;;8.47;39.60
55373;BME280;41249;47.838;16.490;2023-04-26T12:53:54;99269.16;;;8.52;39.76
55373;BME280;41249;47.838;16.490;2023-04-26T12:56:20;99271.69;;;8.21;38.61
55373;BME280;41249;47.838;16.490;2023-04-26T12:58:47;99284.13;;;8.01;39.37
55373;BME280;41249;47.838;16.490;2023-04-26T13:01:14;99269.53;;;7.63;41.72
55373;BME280;41249;47.838;16.490;2023-04-26T13:03:41;99286.91;;;7.31;41.03
55373;BME280;41249;47.838;16.490;2023-04-26T13:06:08;99299.38;;;7.17;41.19
55373;BME280;41249;47.838;16.490;2023-04-26T13:08:35;99307.88;;;6.76;43.72
55373;BME280;41249;47.838;16.490;2023-04-26T13:11:01;99311.19;;;6.39;46.29
55373;BME280;41249;47.838;16.490;2023-04-26T13:13:28;99295.94;;;6.19;46.40
55373;BME280;41249;47.838;16.490;2023-04-26T13:16:09;99296.97;;;6.11;45.37
55373;BME280;41249;47.838;16.490;2023-04-26T13:18:35;99300.44;;;6.08;45.65
55373;BME280;41249;47.838;16.490;2023-04-26T13:21:02;99311.78;;;6.03;46.12
55373;BME280;41249;47.838;16.490;2023-04-26T13:23:28;99307.22;;;5.69;48.87
55373;BME280;41249;47.838;16.490;2023-04-26T13:25:55;99302.88;;;5.68;49.36
55373;BME280;41249;47.838;16.490;2023-04-26T13:28:21;99294.09;;;5.81;48.88
55373;BME280;41249;47.838;16.490;2023-04-26T13:30:48;99289.34;;;6.27;48.12